sensor_id;sensor_type;location;lat;lon;timestamp;P1;durP1;ratioP1;P2;durP2;ratioP2
76477;SDS011;65309;49.790;18.972;2023-05-14T00:02:12;4.60;;;3.13;;
76477;SDS011;65309;49.790;18.972;2023-05-14T00:07:14;5.80;;;3.78;;
76477;SDS011;65309;49.790;18.972;2023-05-14T00:12:18;4.95;;;3.50;;
76477;SDS011;65309;49.790;18.972;2023-05-14T00:22:22;3.75;;;3.00;;
76477;SDS011;65309;49.790;18.972;2023-05-14T00:27:25;7.63;;;4.03;;
76477;SDS011;65309;49.790;18.972;2023-05-14T00:32:27;6.15;;;3.83;;
76477;SDS011;65309;49.790;18.972;2023-05-14T00:37:29;5.18;;;3.65;;
76477;SDS011;65309;49.790;18.972;2023-05-14T00:42:33;4.22;;;2.78;;
76477;SDS011;65309;49.790;18.972;2023-05-14T00:47:35;6.53;;;3.88;;
76477;SDS011;65309;49.790;18.972;2023-05-14T00:52:39;5.80;;;3.63;;
76477;SDS011;65309;49.790;18.972;2023-05-14T00:57:43;4.90;;;3.22;;
76477;SDS011;65309;49.790;18.972;2023-05-14T01:02:45;9.60;;;4.15;;
76477;SDS011;65309;49.790;18.972;2023-05-14T01:07:48;6.13;;;3.50;;
76477;SDS011;65309;49.790;18.972;2023-05-14T01:13:01;6.75;;;3.78;;
76477;SDS011;65309;49.790;18.972;2023-05-14T01:18:09;5.30;;;3.80;;
76477;SDS011;65309;49.790;18.972;2023-05-14T01:23:15;5.57;;;3.53;;
76477;SDS011;65309;49.790;18.972;2023-05-14T01:28:18;4.55;;;3.42;;
76477;SDS011;65309;49.790;18.972;2023-05-14T01:33:21;4.25;;;3.70;;
76477;SDS011;65309;49.790;18.972;2023-05-14T01:38:27;6.03;;;4.30;;
76477;SDS011;65309;49.790;18.972;2023-05-14T01:43:33;5.43;;;3.70;;
76477;SDS011;65309;49.790;18.972;2023-05-14T01:48:36;5.50;;;3.88;;
76477;SDS011;65309;49.790;18.972;2023-05-14T01:53:39;5.70;;;4.22;;
76477;SDS011;65309;49.790;18.972;2023-05-14T01:58:41;6.55;;;4.43;;
76477;SDS011;65309;49.790;18.972;2023-05-14T02:03:43;5.05;;;3.67;;
76477;SDS011;65309;49.790;18.972;2023-05-14T02:08:47;5.57;;;3.63;;
76477;SDS011;65309;49.790;18.972;2023-05-14T02:13:49;4.78;;;3.45;;
76477;SDS011;65309;49.790;18.972;2023-05-14T02:18:51;5.43;;;4.00;;
76477;SDS011;65309;49.790;18.972;2023-05-14T02:23:54;5.85;;;4.03;;
76477;SDS011;65309;49.790;18.972;2023-05-14T02:28:56;5.45;;;3.30;;
76477;SDS011;65309;49.790;18.972;2023-05-14T02:33:59;5.38;;;3.63;;
76477;SDS011;65309;49.790;18.972;2023-05-14T02:39:03;4.90;;;3.25;;
76477;SDS011;65309;49.790;18.972;2023-05-14T02:44:05;4.45;;;3.70;;
76477;SDS011;65309;49.790;18.972;2023-05-14T02:49:07;5.20;;;3.50;;
76477;SDS011;65309;49.790;18.972;2023-05-14T02:54:10;4.50;;;3.35;;
76477;SDS011;65309;49.790;18.972;2023-05-14T02:59:12;6.00;;;4.20;;
76477;SDS011;65309;49.790;18.972;2023-05-14T03:04:15;4.97;;;3.90;;
76477;SDS011;65309;49.790;18.972;2023-05-14T03:09:18;4.80;;;3.35;;
76477;SDS011;65309;49.790;18.972;2023-05-14T03:14:21;3.97;;;2.90;;
76477;SDS011;65309;49.790;18.972;2023-05-14T03:19:23;5.97;;;3.47;;
76477;SDS011;65309;49.790;18.972;2023-05-14T03:24:26;4.95;;;3.65;;
76477;SDS011;65309;49.790;18.972;2023-05-14T03:29:29;4.60;;;3.55;;
76477;SDS011;65309;49.790;18.972;2023-05-14T03:34:31;4.47;;;2.92;;
76477;SDS011;65309;49.790;18.972;2023-05-14T03:39:34;5.28;;;3.75;;
76477;SDS011;65309;49.790;18.972;2023-05-14T03:44:36;5.20;;;3.55;;
76477;SDS011;65309;49.790;18.972;2023-05-14T03:49:38;3.95;;;3.05;;
76477;SDS011;65309;49.790;18.972;2023-05-14T03:54:42;9.93;;;3.33;;
76477;SDS011;65309;49.790;18.972;2023-05-14T03:59:44;4.22;;;3.28;;
76477;SDS011;65309;49.790;18.972;2023-05-14T04:04:45;5.57;;;3.50;;
76477;SDS011;65309;49.790;18.972;2023-05-14T04:09:49;7.03;;;3.60;;
76477;SDS011;65309;49.790;18.972;2023-05-14T04:14:51;5.32;;;3.78;;
76477;SDS011;65309;49.790;18.972;2023-05-14T04:19:53;4.50;;;3.35;;
76477;SDS011;65309;49.790;18.972;2023-05-14T04:24:56;4.80;;;3.25;;
76477;SDS011;65309;49.790;18.972;2023-05-14T04:29:58;7.18;;;3.55;;
76477;SDS011;65309;49.790;18.972;2023-05-14T04:35:00;6.38;;;3.65;;
76477;SDS011;65309;49.790;18.972;2023-05-14T04:40:04;4.85;;;3.65;;
76477;SDS011;65309;49.790;18.972;2023-05-14T04:45:08;4.20;;;3.28;;
76477;SDS011;65309;49.790;18.972;2023-05-14T04:50:11;4.30;;;3.45;;
76477;SDS011;65309;49.790;18.972;2023-05-14T04:55:15;6.13;;;3.75;;
76477;SDS011;65309;49.790;18.972;2023-05-14T05:00:17;5.35;;;3.28;;
76477;SDS011;65309;49.790;18.972;2023-05-14T05:05:19;5.47;;;3.58;;
76477;SDS011;65309;49.790;18.972;2023-05-14T05:10:23;7.78;;;3.22;;
76477;SDS011;65309;49.790;18.972;2023-05-14T05:15:26;5.85;;;4.65;;
76477;SDS011;65309;49.790;18.972;2023-05-14T05:20:28;5.65;;;3.90;;
76477;SDS011;65309;49.790;18.972;2023-05-14T05:25:31;4.82;;;3.67;;
76477;SDS011;65309;49.790;18.972;2023-05-14T05:30:33;5.35;;;3.85;;
76477;SDS011;65309;49.790;18.972;2023-05-14T05:35:35;5.30;;;3.85;;
76477;SDS011;65309;49.790;18.972;2023-05-14T05:40:39;5.60;;;4.10;;
76477;SDS011;65309;49.790;18.972;2023-05-14T05:45:41;4.68;;;3.45;;
76477;SDS011;65309;49.790;18.972;2023-05-14T05:50:45;3.22;;;2.80;;
76477;SDS011;65309;49.790;18.972;2023-05-14T05:55:49;7.30;;;3.95;;
76477;SDS011;65309;49.790;18.972;2023-05-14T06:00:52;4.47;;;3.33;;
76477;SDS011;65309;49.790;18.972;2023-05-14T06:05:54;5.10;;;4.18;;
76477;SDS011;65309;49.790;18.972;2023-05-14T06:10:57;3.85;;;3.40;;
76477;SDS011;65309;49.790;18.972;2023-05-14T06:15:59;5.43;;;3.80;;
76477;SDS011;65309;49.790;18.972;2023-05-14T06:21:02;8.18;;;4.03;;
76477;SDS011;65309;49.790;18.972;2023-05-14T06:26:05;5.40;;;3.50;;
76477;SDS011;65309;49.790;18.972;2023-05-14T06:31:07;5.07;;;4.25;;
76477;SDS011;65309;49.790;18.972;2023-05-14T06:36:09;7.53;;;4.90;;
76477;SDS011;65309;49.790;18.972;2023-05-14T06:41:12;7.03;;;4.32;;
76477;SDS011;65309;49.790;18.972;2023-05-14T06:46:14;4.25;;;3.75;;
76477;SDS011;65309;49.790;18.972;2023-05-14T06:51:16;4.97;;;3.70;;
76477;SDS011;65309;49.790;18.972;2023-05-14T06:56:20;5.22;;;4.03;;
76477;SDS011;65309;49.790;18.972;2023-05-14T07:01:22;5.13;;;3.85;;
76477;SDS011;65309;49.790;18.972;2023-05-14T07:06:24;7.88;;;3.58;;
76477;SDS011;65309;49.790;18.972;2023-05-14T07:11:28;5.38;;;4.00;;
76477;SDS011;65309;49.790;18.972;2023-05-14T07:16:30;4.50;;;3.85;;
76477;SDS011;65309;49.790;18.972;2023-05-14T07:21:33;5.00;;;3.67;;
76477;SDS011;65309;49.790;18.972;2023-05-14T07:26:39;5.38;;;3.45;;
76477;SDS011;65309;49.790;18.972;2023-05-14T07:31:41;7.40;;;4.53;;
76477;SDS011;65309;49.790;18.972;2023-05-14T07:36:43;7.25;;;4.30;;
76477;SDS011;65309;49.790;18.972;2023-05-14T07:41:47;6.00;;;3.45;;
76477;SDS011;65309;49.790;18.972;2023-05-14T07:46:50;4.75;;;3.22;;
76477;SDS011;65309;49.790;18.972;2023-05-14T07:51:52;6.50;;;4.25;;
76477;SDS011;65309;49.790;18.972;2023-05-14T07:56:56;5.22;;;3.95;;
76477;SDS011;65309;49.790;18.972;2023-05-14T08:01:57;10.23;;;4.03;;
76477;SDS011;65309;49.790;18.972;2023-05-14T08:07:00;5.28;;;3.75;;
76477;SDS011;65309;49.790;18.972;2023-05-14T08:12:04;2.80;;;2.33;;
76477;SDS011;65309;49.790;18.972;2023-05-14T08:17:06;3.72;;;2.78;;
76477;SDS011;65309;49.790;18.972;2023-05-14T08:22:09;4.68;;;3.45;;
76477;SDS011;65309;49.790;18.972;2023-05-14T08:27:12;4.82;;;2.53;;
76477;SDS011;65309;49.790;18.972;2023-05-14T08:32:14;5.10;;;2.75;;
76477;SDS011;65309;49.790;18.972;2023-05-14T08:37:24;3.30;;;2.83;;
76477;SDS011;65309;49.790;18.972;2023-05-14T08:42:27;4.30;;;3.63;;
76477;SDS011;65309;49.790;18.972;2023-05-14T08:47:30;3.47;;;2.45;;
76477;SDS011;65309;49.790;18.972;2023-05-14T08:52:32;5.68;;;3.28;;
76477;SDS011;65309;49.790;18.972;2023-05-14T08:57:36;3.45;;;2.58;;
76477;SDS011;65309;49.790;18.972;2023-05-14T09:02:39;8.02;;;4.53;;
76477;SDS011;65309;49.790;18.972;2023-05-14T09:07:42;5.53;;;3.92;;
76477;SDS011;65309;49.790;18.972;2023-05-14T09:12:45;4.43;;;3.35;;
76477;SDS011;65309;49.790;18.972;2023-05-14T09:17:47;10.15;;;5.25;;
76477;SDS011;65309;49.790;18.972;2023-05-14T09:22:51;6.13;;;3.75;;
76477;SDS011;65309;49.790;18.972;2023-05-14T09:27:55;11.52;;;4.78;;
76477;SDS011;65309;49.790;18.972;2023-05-14T09:32:59;7.50;;;5.47;;
76477;SDS011;65309;49.790;18.972;2023-05-14T09:38:02;7.32;;;4.22;;
76477;SDS011;65309;49.790;18.972;2023-05-14T09:43:05;6.03;;;4.00;;
76477;SDS011;65309;49.790;18.972;2023-05-14T09:48:07;5.57;;;3.58;;
76477;SDS011;65309;49.790;18.972;2023-05-14T09:58:13;4.97;;;3.13;;
76477;SDS011;65309;49.790;18.972;2023-05-14T10:03:15;6.40;;;4.78;;
76477;SDS011;65309;49.790;18.972;2023-05-14T10:08:21;7.35;;;4.40;;
76477;SDS011;65309;49.790;18.972;2023-05-14T10:13:29;5.57;;;4.20;;
76477;SDS011;65309;49.790;18.972;2023-05-14T10:18:34;6.38;;;4.07;;
76477;SDS011;65309;49.790;18.972;2023-05-14T10:23:40;5.50;;;3.22;;
76477;SDS011;65309;49.790;18.972;2023-05-14T10:28:44;6.43;;;3.67;;
76477;SDS011;65309;49.790;18.972;2023-05-14T10:33:47;6.00;;;3.58;;
76477;SDS011;65309;49.790;18.972;2023-05-14T10:38:53;8.02;;;4.15;;
76477;SDS011;65309;49.790;18.972;2023-05-14T10:43:59;6.07;;;4.43;;
76477;SDS011;65309;49.790;18.972;2023-05-14T10:49:09;4.28;;;3.47;;
76477;SDS011;65309;49.790;18.972;2023-05-14T10:54:12;5.68;;;3.83;;
76477;SDS011;65309;49.790;18.972;2023-05-14T11:04:18;4.43;;;3.13;;
76477;SDS011;65309;49.790;18.972;2023-05-14T11:09:25;5.70;;;4.28;;
76477;SDS011;65309;49.790;18.972;2023-05-14T11:14:28;5.38;;;3.83;;
76477;SDS011;65309;49.790;18.972;2023-05-14T11:19:30;6.10;;;3.72;;
76477;SDS011;65309;49.790;18.972;2023-05-14T11:29:36;5.93;;;3.47;;
76477;SDS011;65309;49.790;18.972;2023-05-14T11:34:38;5.70;;;3.03;;
76477;SDS011;65309;49.790;18.972;2023-05-14T11:39:45;6.15;;;2.88;;
76477;SDS011;65309;49.790;18.972;2023-05-14T11:44:50;5.90;;;3.22;;
76477;SDS011;65309;49.790;18.972;2023-05-14T11:49:54;4.57;;;3.30;;
76477;SDS011;65309;49.790;18.972;2023-05-14T11:59:59;4.05;;;3.05;;
76477;SDS011;65309;49.790;18.972;2023-05-14T12:05:01;4.25;;;2.85;;
76477;SDS011;65309;49.790;18.972;2023-05-14T12:10:07;5.32;;;3.30;;
76477;SDS011;65309;49.790;18.972;2023-05-14T12:15:14;3.90;;;2.75;;
76477;SDS011;65309;49.790;18.972;2023-05-14T12:20:19;2.30;;;1.83;;
76477;SDS011;65309;49.790;18.972;2023-05-14T12:25:21;3.92;;;2.63;;
76477;SDS011;65309;49.790;18.972;2023-05-14T12:30:27;3.22;;;2.13;;
76477;SDS011;65309;49.790;18.972;2023-05-14T12:35:38;3.90;;;2.17;;
76477;SDS011;65309;49.790;18.972;2023-05-14T12:40:40;2.88;;;2.42;;
76477;SDS011;65309;49.790;18.972;2023-05-14T12:50:45;3.10;;;2.25;;
76477;SDS011;65309;49.790;18.972;2023-05-14T12:55:49;3.45;;;2.58;;
76477;SDS011;65309;49.790;18.972;2023-05-14T13:00:55;2.67;;;1.85;;
76477;SDS011;65309;49.790;18.972;2023-05-14T13:06:13;2.17;;;1.70;;
76477;SDS011;65309;49.790;18.972;2023-05-14T13:16:18;2.65;;;2.03;;
76477;SDS011;65309;49.790;18.972;2023-05-14T13:21:20;3.10;;;2.15;;
76477;SDS011;65309;49.790;18.972;2023-05-14T13:26:22;3.80;;;2.10;;
76477;SDS011;65309;49.790;18.972;2023-05-14T13:31:28;3.13;;;1.92;;
76477;SDS011;65309;49.790;18.972;2023-05-14T13:36:30;3.33;;;2.17;;
76477;SDS011;65309;49.790;18.972;2023-05-14T13:46:39;2.92;;;2.22;;
76477;SDS011;65309;49.790;18.972;2023-05-14T13:51:42;5.18;;;1.90;;
76477;SDS011;65309;49.790;18.972;2023-05-14T13:56:44;3.10;;;2.17;;
76477;SDS011;65309;49.790;18.972;2023-05-14T14:06:50;3.95;;;2.50;;
76477;SDS011;65309;49.790;18.972;2023-05-14T14:11:52;4.18;;;2.63;;
76477;SDS011;65309;49.790;18.972;2023-05-14T14:21:58;5.70;;;2.65;;
76477;SDS011;65309;49.790;18.972;2023-05-14T14:27:00;3.13;;;2.30;;
76477;SDS011;65309;49.790;18.972;2023-05-14T14:32:04;5.00;;;2.53;;
76477;SDS011;65309;49.790;18.972;2023-05-14T14:37:07;3.42;;;2.67;;
76477;SDS011;65309;49.790;18.972;2023-05-14T14:47:12;4.10;;;3.03;;
76477;SDS011;65309;49.790;18.972;2023-05-14T14:52:14;5.78;;;3.80;;
76477;SDS011;65309;49.790;18.972;2023-05-14T15:02:20;3.83;;;2.40;;
76477;SDS011;65309;49.790;18.972;2023-05-14T15:07:22;3.28;;;2.50;;
76477;SDS011;65309;49.790;18.972;2023-05-14T15:17:28;5.95;;;2.35;;
76477;SDS011;65309;49.790;18.972;2023-05-14T15:22:30;5.60;;;3.10;;
76477;SDS011;65309;49.790;18.972;2023-05-14T15:27:32;6.47;;;3.00;;
76477;SDS011;65309;49.790;18.972;2023-05-14T15:32:35;2.85;;;2.22;;
76477;SDS011;65309;49.790;18.972;2023-05-14T15:37:38;3.17;;;2.38;;
76477;SDS011;65309;49.790;18.972;2023-05-14T15:42:42;4.95;;;2.58;;
76477;SDS011;65309;49.790;18.972;2023-05-14T15:47:46;3.35;;;2.58;;
76477;SDS011;65309;49.790;18.972;2023-05-14T15:52:48;3.17;;;2.42;;
76477;SDS011;65309;49.790;18.972;2023-05-14T15:57:50;7.50;;;2.40;;
76477;SDS011;65309;49.790;18.972;2023-05-14T16:02:53;3.53;;;2.92;;
76477;SDS011;65309;49.790;18.972;2023-05-14T16:07:55;3.65;;;2.80;;
76477;SDS011;65309;49.790;18.972;2023-05-14T16:12:57;3.75;;;2.90;;
76477;SDS011;65309;49.790;18.972;2023-05-14T16:18:01;5.32;;;2.90;;
76477;SDS011;65309;49.790;18.972;2023-05-14T16:23:03;3.67;;;2.60;;
76477;SDS011;65309;49.790;18.972;2023-05-14T16:28:05;3.85;;;2.83;;
76477;SDS011;65309;49.790;18.972;2023-05-14T16:33:09;3.40;;;2.30;;
76477;SDS011;65309;49.790;18.972;2023-05-14T16:38:12;2.75;;;2.15;;
76477;SDS011;65309;49.790;18.972;2023-05-14T16:43:15;3.13;;;2.70;;
76477;SDS011;65309;49.790;18.972;2023-05-14T16:48:18;4.28;;;2.40;;
76477;SDS011;65309;49.790;18.972;2023-05-14T16:53:20;2.58;;;2.15;;
76477;SDS011;65309;49.790;18.972;2023-05-14T16:58:22;3.53;;;2.13;;
76477;SDS011;65309;49.790;18.972;2023-05-14T17:03:26;4.35;;;3.03;;
76477;SDS011;65309;49.790;18.972;2023-05-14T17:08:28;3.38;;;2.78;;
76477;SDS011;65309;49.790;18.972;2023-05-14T17:13:33;5.07;;;3.20;;
76477;SDS011;65309;49.790;18.972;2023-05-14T17:18:49;5.57;;;3.03;;
76477;SDS011;65309;49.790;18.972;2023-05-14T17:23:51;5.55;;;2.90;;
76477;SDS011;65309;49.790;18.972;2023-05-14T17:28:53;5.60;;;2.70;;
76477;SDS011;65309;49.790;18.972;2023-05-14T17:33:56;4.40;;;2.75;;
76477;SDS011;65309;49.790;18.972;2023-05-14T17:38:59;3.65;;;2.90;;
76477;SDS011;65309;49.790;18.972;2023-05-14T17:44:01;4.80;;;3.20;;
76477;SDS011;65309;49.790;18.972;2023-05-14T17:49:04;4.45;;;2.75;;
76477;SDS011;65309;49.790;18.972;2023-05-14T17:54:06;3.75;;;3.20;;
76477;SDS011;65309;49.790;18.972;2023-05-14T17:59:08;3.22;;;2.33;;
76477;SDS011;65309;49.790;18.972;2023-05-14T18:04:12;6.45;;;2.70;;
76477;SDS011;65309;49.790;18.972;2023-05-14T18:09:14;4.00;;;2.53;;
76477;SDS011;65309;49.790;18.972;2023-05-14T18:14:16;4.22;;;2.90;;
76477;SDS011;65309;49.790;18.972;2023-05-14T18:24:22;5.88;;;2.63;;
76477;SDS011;65309;49.790;18.972;2023-05-14T18:29:24;4.55;;;3.28;;
76477;SDS011;65309;49.790;18.972;2023-05-14T18:34:27;4.45;;;3.47;;
76477;SDS011;65309;49.790;18.972;2023-05-14T18:39:29;4.78;;;2.97;;
76477;SDS011;65309;49.790;18.972;2023-05-14T18:44:31;4.38;;;2.83;;
76477;SDS011;65309;49.790;18.972;2023-05-14T18:49:35;4.85;;;3.03;;
76477;SDS011;65309;49.790;18.972;2023-05-14T18:54:39;4.35;;;3.22;;
76477;SDS011;65309;49.790;18.972;2023-05-14T18:59:41;4.28;;;3.20;;
76477;SDS011;65309;49.790;18.972;2023-05-14T19:04:45;7.50;;;2.97;;
76477;SDS011;65309;49.790;18.972;2023-05-14T19:09:49;6.50;;;3.00;;
76477;SDS011;65309;49.790;18.972;2023-05-14T19:14:51;6.38;;;3.05;;
76477;SDS011;65309;49.790;18.972;2023-05-14T19:19:55;4.03;;;2.95;;
76477;SDS011;65309;49.790;18.972;2023-05-14T19:24:57;4.03;;;2.33;;
76477;SDS011;65309;49.790;18.972;2023-05-14T19:29:59;4.88;;;2.88;;
76477;SDS011;65309;49.790;18.972;2023-05-14T19:35:02;5.70;;;3.90;;
76477;SDS011;65309;49.790;18.972;2023-05-14T19:40:05;15.43;;;6.97;;
76477;SDS011;65309;49.790;18.972;2023-05-14T19:45:08;17.23;;;7.00;;
76477;SDS011;65309;49.790;18.972;2023-05-14T19:55:14;19.95;;;6.30;;
76477;SDS011;65309;49.790;18.972;2023-05-14T20:00:16;11.90;;;5.63;;
76477;SDS011;65309;49.790;18.972;2023-05-14T20:05:20;10.32;;;4.72;;
76477;SDS011;65309;49.790;18.972;2023-05-14T20:10:22;3.83;;;3.10;;
76477;SDS011;65309;49.790;18.972;2023-05-14T20:15:25;3.47;;;2.55;;
76477;SDS011;65309;49.790;18.972;2023-05-14T20:20:28;4.03;;;3.30;;
76477;SDS011;65309;49.790;18.972;2023-05-14T20:25:34;3.92;;;2.90;;
76477;SDS011;65309;49.790;18.972;2023-05-14T20:30:36;4.47;;;2.88;;
76477;SDS011;65309;49.790;18.972;2023-05-14T20:35:39;3.60;;;2.88;;
76477;SDS011;65309;49.790;18.972;2023-05-14T20:40:44;4.53;;;3.00;;
76477;SDS011;65309;49.790;18.972;2023-05-14T20:45:46;7.32;;;3.42;;
76477;SDS011;65309;49.790;18.972;2023-05-14T20:50:49;5.68;;;2.92;;
76477;SDS011;65309;49.790;18.972;2023-05-14T20:55:51;6.30;;;3.20;;
76477;SDS011;65309;49.790;18.972;2023-05-14T21:00:53;6.30;;;3.83;;
76477;SDS011;65309;49.790;18.972;2023-05-14T21:05:57;7.13;;;3.33;;
76477;SDS011;65309;49.790;18.972;2023-05-14T21:11:01;5.18;;;3.33;;
76477;SDS011;65309;49.790;18.972;2023-05-14T21:16:03;6.65;;;4.05;;
76477;SDS011;65309;49.790;18.972;2023-05-14T21:21:07;6.13;;;3.70;;
76477;SDS011;65309;49.790;18.972;2023-05-14T21:26:09;4.55;;;3.15;;
76477;SDS011;65309;49.790;18.972;2023-05-14T21:31:11;3.95;;;2.53;;
76477;SDS011;65309;49.790;18.972;2023-05-14T21:36:14;7.50;;;3.08;;
76477;SDS011;65309;49.790;18.972;2023-05-14T21:41:16;6.68;;;2.88;;
76477;SDS011;65309;49.790;18.972;2023-05-14T21:46:18;5.28;;;2.53;;
76477;SDS011;65309;49.790;18.972;2023-05-14T21:51:21;3.80;;;2.83;;
76477;SDS011;65309;49.790;18.972;2023-05-14T21:56:24;3.85;;;2.63;;
76477;SDS011;65309;49.790;18.972;2023-05-14T22:01:26;3.70;;;2.65;;
76477;SDS011;65309;49.790;18.972;2023-05-14T22:06:30;4.78;;;3.38;;
76477;SDS011;65309;49.790;18.972;2023-05-14T22:11:32;6.20;;;3.20;;
76477;SDS011;65309;49.790;18.972;2023-05-14T22:16:34;5.03;;;2.75;;
76477;SDS011;65309;49.790;18.972;2023-05-14T22:21:38;5.20;;;3.42;;
76477;SDS011;65309;49.790;18.972;2023-05-14T22:26:40;6.35;;;3.58;;
76477;SDS011;65309;49.790;18.972;2023-05-14T22:31:42;6.50;;;3.00;;
76477;SDS011;65309;49.790;18.972;2023-05-14T22:36:46;4.35;;;3.00;;
76477;SDS011;65309;49.790;18.972;2023-05-14T22:41:48;5.22;;;3.35;;
76477;SDS011;65309;49.790;18.972;2023-05-14T22:46:55;8.88;;;3.58;;
76477;SDS011;65309;49.790;18.972;2023-05-14T22:51:59;4.78;;;2.67;;
76477;SDS011;65309;49.790;18.972;2023-05-14T22:57:01;5.95;;;2.90;;
76477;SDS011;65309;49.790;18.972;2023-05-14T23:02:03;4.40;;;2.33;;
76477;SDS011;65309;49.790;18.972;2023-05-14T23:07:07;5.45;;;2.90;;
76477;SDS011;65309;49.790;18.972;2023-05-14T23:12:09;4.78;;;2.60;;
76477;SDS011;65309;49.790;18.972;2023-05-14T23:17:11;4.18;;;2.83;;
76477;SDS011;65309;49.790;18.972;2023-05-14T23:22:14;5.20;;;2.53;;
76477;SDS011;65309;49.790;18.972;2023-05-14T23:27:16;5.78;;;2.72;;
76477;SDS011;65309;49.790;18.972;2023-05-14T23:32:18;3.67;;;2.35;;
76477;SDS011;65309;49.790;18.972;2023-05-14T23:37:22;4.20;;;3.33;;
76477;SDS011;65309;49.790;18.972;2023-05-14T23:42:24;4.15;;;2.67;;
76477;SDS011;65309;49.790;18.972;2023-05-14T23:47:26;3.33;;;2.30;;
76477;SDS011;65309;49.790;18.972;2023-05-14T23:52:29;3.65;;;2.65;;
76477;SDS011;65309;49.790;18.972;2023-05-14T23:57:31;3.50;;;2.63;;
